Archival Weather

Heathrow

Heathrow, United Kingdom (EGLL)

Report from: Thursday, June 23, 2022 10:50 AM BST
Current time: Tuesday, August 16, 2022 9:11 AM BST

Current weather
Weather history
Weather forecast

Temperature19.0°C (66.2°F)
Dew point14.0°C (57.2°F)
Winds 5 kts (2.6 m/s, 5.8 mph) Vrb
Winds variableWinds variable from East (80°) to North-Northwest (340°)
Visibility6.2 mi. (10 km)
Clouds Sky clear
Altimeter29.83 in.Hg (1010 mB)
Relative humidity73 %
Density altitude801 ft. (244 m)
Remarks Fully automated report
Corrected report
No clouds detected
No significant changes expected in the next two hours
Flight conditions Visual Meteorological Conditions
Raw dataCOR EGLL 230950Z AUTO 04005KT 340V080 9999 NCD 19/14 Q1010 NOSIG
An error has occurred. This application may no longer respond until reloaded. Reload 🗙